Time;durP1;ratioP1;P1;durP2;ratioP2;P2;SDS_P1;SDS_P2;PMS_P1;PMS_P2;Temp;Humidity;BMP_temperature;BMP_pressure;BME280_temperature;BME280_humidity;BME280_pressure;Samples;Min_cycle;Max_cycle;Signal;HPM_P1;HPM_P2
2022/02/16 00:12:05;;;;;;;50.83;23.53;;;;;;;6.01;92.94;99843.96;714661;1174;115904;-74
2022/02/16 00:27:07;;;;;;;45.85;23.00;;;;;;;5.80;93.15;99804.73;713941;1174;114658;-74
2022/02/16 00:42:09;;;;;;;51.73;25.08;;;;;;;5.63;94.73;99782.58;713562;1174;114829;-74
2022/02/16 00:57:11;;;;;;;49.38;24.48;;;;;;;5.57;95.17;99770.02;714026;1174;114120;-75
2022/02/16 01:12:14;;;;;;;46.93;25.37;;;;;;;5.56;95.29;99744.97;713892;1174;114887;-74
2022/02/16 01:27:16;;;;;;;56.25;27.18;;;;;;;5.64;95.43;99740.00;713766;1174;115766;-75
2022/02/16 01:42:20;;;;;;;52.90;26.58;;;;;;;5.58;95.61;99707.48;714220;1175;113996;-76
2022/02/16 01:57:22;;;;;;;52.73;27.70;;;;;;;5.31;95.95;99686.98;714398;1175;114017;-74
2022/02/16 02:12:24;;;;;;;54.23;27.30;;;;;;;5.16;96.03;99668.16;714603;1174;114395;-75
2022/02/16 02:27:26;;;;;;;55.50;26.10;;;;;;;5.02;96.00;99650.98;714413;1174;115122;-75
2022/02/16 02:42:28;;;;;;;50.55;25.35;;;;;;;4.79;96.37;99622.34;713858;1176;115144;-75
2022/02/16 02:57:31;;;;;;;58.93;27.37;;;;;;;4.71;96.98;99609.11;713733;1177;114734;-77
2022/02/16 03:12:33;;;;;;;51.13;25.67;;;;;;;4.61;98.34;99597.73;713791;1175;114854;-75
2022/02/16 03:27:36;;;;;;;54.53;24.95;;;;;;;4.59;97.84;99581.42;713654;1174;116011;-75
2022/02/16 03:42:39;;;;;;;57.10;27.35;;;;;;;4.57;98.68;99576.34;713918;1176;115732;-74
2022/02/16 03:57:41;;;;;;;51.33;26.83;;;;;;;4.55;99.34;99562.63;714295;1175;114692;-75
2022/02/16 04:12:43;;;;;;;53.20;25.73;;;;;;;4.67;99.51;99547.89;714542;1175;114007;-75
2022/02/16 04:27:46;;;;;;;47.93;24.05;;;;;;;4.80;98.98;99532.20;714878;1174;114762;-75
2022/02/16 04:42:48;;;;;;;56.53;25.07;;;;;;;4.85;99.92;99490.29;713933;1176;115359;-74
2022/02/16 04:57:52;;;;;;;116.70;55.00;;;;;;;4.98;99.80;99499.61;713939;1175;115273;-77
2022/02/16 05:12:54;;;;;;;54.78;28.75;;;;;;;5.12;99.88;99471.70;714137;1176;114050;-76
2022/02/16 05:27:56;;;;;;;46.85;25.25;;;;;;;5.46;99.36;99436.08;713966;1174;114933;-76
2022/02/16 05:42:59;;;;;;;51.65;25.98;;;;;;;5.33;99.59;99438.82;714286;1174;115034;-76
2022/02/16 05:58:01;;;;;;;46.43;22.60;;;;;;;5.30;99.61;99414.83;714061;1177;114675;-78
2022/02/16 06:13:03;;;;;;;56.25;24.85;;;;;;;5.12;98.64;99404.95;715108;1174;113934;-86
2022/02/16 06:28:06;;;;;;;55.53;32.47;;;;;;;4.97;97.76;99396.56;715699;1174;115472;-75
2022/02/16 06:43:09;;;;;;;62.37;33.30;;;;;;;5.12;99.14;99385.91;714997;1175;114740;-78
2022/02/16 06:58:11;;;;;;;54.90;26.93;;;;;;;5.16;99.37;99356.95;714147;1177;115381;-77
2022/02/16 07:13:13;;;;;;;53.67;26.20;;;;;;;5.27;99.77;99356.08;714349;1175;114720;-77
2022/02/16 07:28:16;;;;;;;68.60;36.40;;;;;;;5.57;99.62;99341.53;714127;1174;114137;-76
2022/02/16 07:43:18;;;;;;;44.83;22.98;;;;;;;5.86;98.13;99324.45;714487;1177;115046;-75
2022/02/16 07:58:21;;;;;;;40.83;24.87;;;;;;;6.05;96.94;99306.36;714026;1174;115554;-75
2022/02/16 08:13:26;;;;;;;36.68;21.53;;;;;;;6.33;96.61;99280.55;714702;1174;114896;-79
2022/02/16 08:28:32;;;;;;;40.98;21.35;;;;;;;6.45;95.06;99297.75;714598;1176;115550;-79
2022/02/16 08:43:35;;;;;;;34.37;19.53;;;;;;;6.68;94.02;99268.02;715660;1174;114761;-79
2022/02/16 08:58:37;;;;;;;32.93;17.40;;;;;;;6.74;92.99;99257.05;715256;1177;116005;-79
2022/02/16 09:13:41;;;;;;;32.53;17.23;;;;;;;6.92;91.83;99234.56;715326;1174;114040;-79
2022/02/16 09:28:46;;;;;;;63.90;27.98;;;;;;;7.06;89.28;99198.59;715815;1174;115122;-79
2022/02/16 09:43:51;;;;;;;29.55;16.40;;;;;;;7.27;89.42;99161.90;714976;1174;114727;-78
2022/02/16 09:58:53;;;;;;;28.45;14.65;;;;;;;7.40;87.50;99138.92;715341;1175;115013;-79
2022/02/16 10:14:25;;;;;;;29.95;17.25;;;;;;;7.49;86.10;99127.63;717308;1174;114181;-79
2022/02/16 10:29:30;;;;;;;42.97;25.07;;;;;;;7.83;85.40;99074.03;717507;1174;115590;-80
2022/02/16 10:44:34;;;;;;;37.10;23.47;;;;;;;8.15;84.74;99034.33;718015;1175;113951;-78
2022/02/16 10:59:36;;;;;;;25.40;14.80;;;;;;;8.37;82.11;99020.95;717785;1174;114025;-77
2022/02/16 11:14:41;;;;;;;19.87;10.07;;;;;;;8.45;81.10;98994.90;719424;1174;115604;-75
2022/02/16 11:29:45;;;;;;;20.77;12.33;;;;;;;8.54;81.53;98959.19;714504;1174;114734;-76
2022/02/16 11:44:53;;;;;;;18.13;9.93;;;;;;;8.58;81.37;98935.22;714095;1174;114972;-76
2022/02/16 11:59:59;;;;;;;;;;;;;;;9.16;81.20;98873.47;714079;1174;115151;-77
2022/02/16 12:15:02;;;;;;;17.60;9.67;;;;;;;9.30;79.08;98842.41;714014;1174;101014;-76
2022/02/16 12:30:39;;;;;;;19.93;10.35;;;;;;;9.28;78.41;98805.95;714870;1174;114935;-78
2022/02/16 12:46:02;;;;;;;20.88;11.65;;;;;;;9.28;77.83;98774.55;714677;1174;116085;-75
2022/02/16 13:32:38;;;;;;;27.67;13.10;;;;;;;9.77;77.17;98632.26;718150;1174;27291;-88
2022/02/16 13:47:51;;;;;;;25.93;14.80;;;;;;;9.85;77.22;98607.84;719307;1174;113420;-89
2022/02/16 14:03:14;;;;;;;14.48;7.45;;;;;;;9.90;77.92;98526.14;717117;1174;115140;-87
2022/02/16 14:18:20;;;;;;;13.30;7.90;;;;;;;9.99;77.30;98491.05;714725;1174;114417;-79
2022/02/16 14:33:23;;;;;;;405.10;209.68;;;;;;;9.91;77.82;98439.53;714448;1174;113456;-81
2022/02/16 14:48:27;;;;;;;29.15;15.68;;;;;;;9.88;77.69;98387.48;716035;1174;114795;-84
2022/02/16 15:03:31;;;;;;;22.10;8.50;;;;;;;9.64;80.21;98351.84;717050;1174;114054;-84
2022/02/16 15:18:35;;;;;;;10.98;4.93;;;;;;;9.43;85.23;98348.07;716768;1174;114111;-87
2022/02/16 15:33:39;;;;;;;6.33;3.75;;;;;;;9.21;88.79;98344.49;716932;1174;114223;-78
2022/02/16 15:48:44;;;;;;;6.85;4.43;;;;;;;8.95;94.28;98308.20;714250;1174;113883;-81
2022/02/16 16:03:49;;;;;;;10.18;5.83;;;;;;;8.87;94.76;98303.83;714801;1174;113459;-78
2022/02/16 16:18:54;;;;;;;13.30;9.33;;;;;;;8.65;97.91;98277.45;715345;1174;114774;-79
2022/02/16 16:33:58;;;;;;;9.28;5.83;;;;;;;8.41;99.23;98252.25;714808;1174;113643;-78
2022/02/16 16:49:02;;;;;;;9.93;5.20;;;;;;;8.38;100.00;98223.02;714827;1174;113763;-81
2022/02/16 17:04:08;;;;;;;21.88;9.35;;;;;;;8.44;100.00;98212.70;715114;1174;114908;-80
2022/02/16 17:19:12;;;;;;;25.00;11.55;;;;;;;8.35;100.00;98182.38;715128;1174;114580;-81
2022/02/16 17:34:17;;;;;;;12.90;6.68;;;;;;;8.34;100.00;98165.10;716100;1174;114719;-84
2022/02/16 17:49:20;;;;;;;10.83;5.88;;;;;;;8.38;100.00;98168.16;717331;1174;114923;-85
2022/02/16 18:04:24;;;;;;;12.20;6.25;;;;;;;8.56;100.00;98097.36;717675;1174;115096;-86
2022/02/16 18:19:31;;;;;;;12.60;6.20;;;;;;;8.68;100.00;98085.48;717453;1174;115435;-87
2022/02/16 18:34:39;;;;;;;8.38;5.60;;;;;;;8.83;100.00;98085.54;717777;1174;114581;-77
2022/02/16 18:49:47;;;;;;;8.60;5.33;;;;;;;8.94;100.00;98040.63;714580;1174;114652;-78
2022/02/16 19:04:51;;;;;;;9.78;6.55;;;;;;;8.75;100.00;98018.45;714898;1174;115325;-78
2022/02/16 19:19:55;;;;;;;10.63;7.07;;;;;;;8.73;100.00;98004.73;714293;1174;114437;-78
2022/02/16 19:35:01;;;;;;;9.28;6.40;;;;;;;8.95;100.00;97952.55;714377;1174;114129;-77
2022/02/16 19:50:07;;;;;;;9.65;6.55;;;;;;;9.05;100.00;97952.27;714817;1174;113765;-82
2022/02/16 20:05:11;;;;;;;11.30;7.00;;;;;;;9.11;100.00;97910.49;714900;1173;113987;-78
2022/02/16 20:20:23;;;;;;;12.25;7.53;;;;;;;9.11;100.00;97886.95;715924;1174;115182;-77
2022/02/16 20:35:27;;;;;;;9.90;6.80;;;;;;;9.22;100.00;97887.47;713756;1174;114084;-78
2022/02/16 20:50:30;;;;;;;10.63;6.83;;;;;;;9.43;100.00;97868.36;713401;1174;113530;-77
2022/02/16 21:05:34;;;;;;;8.45;6.25;;;;;;;9.58;100.00;97868.28;713482;1174;114397;-76
2022/02/16 21:20:38;;;;;;;9.43;5.50;;;;;;;9.72;100.00;97863.99;713407;1173;114073;-77
2022/02/16 21:35:43;;;;;;;9.30;6.15;;;;;;;9.80;100.00;97808.86;713294;1174;115012;-76
2022/02/16 21:50:50;;;;;;;10.27;5.90;;;;;;;9.77;100.00;97814.49;713939;1174;114258;-77
2022/02/16 22:05:54;;;;;;;8.25;5.38;;;;;;;9.91;100.00;97760.38;713927;1174;114538;-77
2022/02/16 22:20:58;;;;;;;9.03;5.68;;;;;;;9.94;100.00;97710.27;714070;1174;113550;-76
2022/02/16 22:36:04;;;;;;;9.45;7.08;;;;;;;10.05;100.00;97665.16;714900;1173;114223;-77
2022/02/16 22:51:07;;;;;;;9.23;5.70;;;;;;;9.98;100.00;97648.63;718681;1173;115008;-77
2022/02/16 23:21:32;;;;;;;8.30;5.30;;;;;;;9.94;100.00;97512.03;713529;1174;115399;-77
2022/02/16 23:36:36;;;;;;;6.95;4.85;;;;;;;10.23;100.00;97457.66;713158;1174;113530;-77
2022/02/16 23:51:42;;;;;;;9.05;5.23;;;;;;;10.54;100.00;97406.44;713078;1174;114601;-78
